Time;durP1;ratioP1;P1;durP2;ratioP2;P2;SDS_P1;SDS_P2;PMS_P1;PMS_P2;Temp;Humidity;BMP_temperature;BMP_pressure;BME280_temperature;BME280_humidity;BME280_pressure;Samples;Min_cycle;Max_cycle;Signal;HPM_P1;HPM_P2
2021/09/18 00:00:39;;;;;;;2.47;1.10;;;13.50;99.90;;;;;;5029743;28;20022;-48
2021/09/18 00:03:04;;;;;;;4.00;1.63;;;13.50;99.90;;;;;;5029641;28;20033;-50
2021/09/18 00:05:30;;;;;;;3.35;1.30;;;13.50;99.90;;;;;;5028287;28;20026;-48
2021/09/18 00:07:55;;;;;;;3.35;1.50;;;13.50;99.90;;;;;;5027577;28;20032;-49
2021/09/18 00:10:21;;;;;;;1.63;1.23;;;13.50;99.90;;;;;;5029250;28;20079;-49
2021/09/18 00:12:46;;;;;;;1.98;1.30;;;13.50;99.90;;;;;;5029321;28;20038;-49
2021/09/18 00:15:12;;;;;;;3.30;1.10;;;13.40;99.90;;;;;;5029441;28;20022;-48
2021/09/18 00:17:38;;;;;;;2.58;1.55;;;13.40;99.90;;;;;;5028566;28;20036;-50
2021/09/18 00:20:05;;;;;;;2.00;1.15;;;13.40;99.90;;;;;;5027899;28;20187;-50
2021/09/18 00:22:30;;;;;;;1.90;1.20;;;13.40;99.90;;;;;;5028776;28;20475;-50
2021/09/18 00:24:57;;;;;;;3.78;1.17;;;13.30;99.90;;;;;;5027024;28;20022;-47
2021/09/18 00:27:22;;;;;;;1.33;1.23;;;13.30;99.90;;;;;;5027772;28;20033;-48
2021/09/18 00:29:48;;;;;;;1.13;1.02;;;13.30;99.90;;;;;;5028831;28;20029;-48
2021/09/18 00:32:13;;;;;;;4.47;1.33;;;13.30;99.90;;;;;;5028735;28;20017;-49
2021/09/18 00:34:39;;;;;;;2.83;1.10;;;13.30;99.90;;;;;;5028379;28;20036;-47
2021/09/18 00:37:04;;;;;;;3.83;1.33;;;13.20;99.90;;;;;;5028317;28;20268;-47
2021/09/18 00:39:30;;;;;;;4.15;1.10;;;13.20;99.90;;;;;;5028574;28;20110;-48
2021/09/18 00:41:55;;;;;;;1.63;1.05;;;13.20;99.90;;;;;;5029242;28;20513;-50
2021/09/18 00:44:21;;;;;;;2.85;1.60;;;13.20;99.90;;;;;;5028330;28;20029;-47
2021/09/18 00:46:50;;;;;;;2.55;1.00;;;13.20;99.90;;;;;;5028321;28;20310;-47
2021/09/18 00:49:16;;;;;;;1.85;1.15;;;13.20;99.90;;;;;;5028180;28;20025;-50
2021/09/18 00:51:41;;;;;;;2.67;1.30;;;13.20;99.90;;;;;;5028448;28;20391;-50
2021/09/18 00:54:07;;;;;;;2.10;1.45;;;13.20;99.90;;;;;;5028251;28;20039;-48
2021/09/18 00:56:34;;;;;;;3.50;1.30;;;13.30;99.90;;;;;;5027897;28;20104;-47
2021/09/18 00:58:59;;;;;;;3.80;1.42;;;13.20;99.90;;;;;;5028185;28;20029;-47
2021/09/18 01:01:24;;;;;;;1.50;1.30;;;13.10;99.90;;;;;;5027892;28;20032;-48
2021/09/18 01:03:50;;;;;;;2.67;1.63;;;13.10;99.90;;;;;;5027856;28;20109;-49
2021/09/18 01:06:17;;;;;;;5.57;1.30;;;13.10;99.90;;;;;;5028232;28;20025;-49
2021/09/18 01:08:47;;;;;;;2.88;1.20;;;13.10;99.90;;;;;;5028044;28;20493;-47
2021/09/18 01:11:13;;;;;;;2.53;1.08;;;13.10;99.90;;;;;;5028579;28;20117;-48
2021/09/18 01:13:38;;;;;;;2.35;1.23;;;13.10;99.90;;;;;;5028137;28;20124;-51
2021/09/18 01:16:04;;;;;;;2.72;1.10;;;13.10;99.90;;;;;;5027940;28;20502;-51
2021/09/18 01:18:29;;;;;;;2.72;1.60;;;13.10;99.90;;;;;;5027991;28;20028;-51
2021/09/18 01:20:55;;;;;;;6.97;1.50;;;13.10;99.90;;;;;;5027978;28;20390;-51
2021/09/18 01:23:22;;;;;;;3.47;1.10;;;13.10;99.90;;;;;;5027995;28;20025;-51
2021/09/18 01:25:48;;;;;;;1.65;1.20;;;13.10;99.90;;;;;;5026510;28;20035;-51
2021/09/18 01:28:14;;;;;;;2.05;1.48;;;13.00;99.90;;;;;;5026059;28;20047;-51
2021/09/18 01:30:40;;;;;;;3.35;1.20;;;13.00;99.90;;;;;;5027819;28;20518;-51
2021/09/18 01:33:07;;;;;;;2.45;1.55;;;13.00;99.90;;;;;;5027764;28;20036;-51
2021/09/18 01:35:34;;;;;;;1.65;1.10;;;13.00;99.90;;;;;;5027263;28;20033;-51
2021/09/18 01:38:00;;;;;;;2.33;1.17;;;13.00;99.90;;;;;;5027275;28;20387;-52
2021/09/18 01:40:28;;;;;;;3.88;1.27;;;13.00;99.90;;;;;;5027824;28;20075;-49
2021/09/18 01:42:54;;;;;;;4.43;1.60;;;13.00;99.90;;;;;;5027711;28;20025;-50
2021/09/18 01:45:20;;;;;;;2.03;1.30;;;12.90;99.90;;;;;;5027202;28;20507;-48
2021/09/18 01:47:51;;;;;;;4.13;1.42;;;13.00;99.90;;;;;;5025886;28;20052;-49
2021/09/18 01:50:30;;;;;;;9.00;1.60;;;12.90;99.90;;;;;;5027560;28;20036;-50
2021/09/18 01:53:02;;;;;;;1.95;1.30;;;12.90;99.90;;;;;;5026215;28;20075;-50
2021/09/18 01:55:28;;;;;;;3.13;1.70;;;12.90;99.90;;;;;;5027630;28;20198;-50
2021/09/18 01:57:56;;;;;;;1.40;1.20;;;12.90;99.90;;;;;;5025307;28;20025;-50
2021/09/18 02:00:22;;;;;;;4.05;1.20;;;12.90;99.90;;;;;;5027444;28;20467;-48
2021/09/18 02:02:48;;;;;;;1.80;1.33;;;12.90;99.90;;;;;;5027463;28;20037;-50
2021/09/18 02:05:17;;;;;;;2.83;1.40;;;12.90;99.90;;;;;;5027085;28;20055;-49
2021/09/18 02:07:43;;;;;;;4.18;1.55;;;12.90;99.90;;;;;;5026324;28;20121;-50
2021/09/18 02:10:12;;;;;;;1.70;1.17;;;12.90;99.90;;;;;;5027300;28;20128;-50
2021/09/18 02:12:37;;;;;;;2.10;1.30;;;12.80;99.90;;;;;;5027129;28;20021;-49
2021/09/18 02:15:05;;;;;;;3.60;1.50;;;12.80;99.90;;;;;;5027009;28;20108;-50
2021/09/18 02:17:30;;;;;;;2.85;1.40;;;12.80;99.90;;;;;;5026751;28;20104;-50
2021/09/18 02:19:56;;;;;;;3.97;1.48;;;12.80;99.90;;;;;;5027316;28;20117;-50
2021/09/18 02:22:22;;;;;;;1.63;1.50;;;12.80;99.90;;;;;;5026772;28;20025;-50
2021/09/18 02:24:47;;;;;;;1.40;0.93;;;12.80;99.90;;;;;;5027128;28;20501;-50
2021/09/18 02:27:13;;;;;;;1.83;1.35;;;12.80;99.90;;;;;;5026464;28;20080;-48
2021/09/18 02:29:38;;;;;;;2.47;1.85;;;12.80;99.90;;;;;;5025932;28;20124;-50
2021/09/18 02:32:05;;;;;;;1.95;1.30;;;12.80;99.90;;;;;;5025871;28;20025;-50
2021/09/18 02:34:30;;;;;;;2.92;1.27;;;12.80;99.90;;;;;;5027249;28;20037;-49
2021/09/18 02:36:55;;;;;;;1.70;1.40;;;12.80;99.90;;;;;;5027049;28;20040;-50
2021/09/18 02:39:21;;;;;;;2.83;1.35;;;12.80;99.90;;;;;;5027594;28;20290;-50
2021/09/18 02:41:46;;;;;;;3.80;1.52;;;12.80;99.90;;;;;;5027601;28;20079;-50
2021/09/18 02:44:12;;;;;;;3.00;1.25;;;12.70;99.90;;;;;;5027283;28;20034;-49
2021/09/18 02:46:38;;;;;;;6.55;1.60;;;12.70;99.90;;;;;;5026375;28;20029;-49
2021/09/18 02:49:03;;;;;;;3.40;1.20;;;12.70;99.90;;;;;;5029332;28;20029;-49
2021/09/18 02:51:29;;;;;;;3.97;1.60;;;12.70;99.90;;;;;;5030826;28;20034;-48
2021/09/18 02:53:54;;;;;;;2.55;1.30;;;12.70;99.90;;;;;;5030584;28;20029;-50
2021/09/18 02:56:20;;;;;;;3.47;1.63;;;12.70;99.90;;;;;;5030747;28;21094;-53
2021/09/18 02:58:45;;;;;;;5.03;1.63;;;12.70;99.90;;;;;;5030280;28;20356;-50
2021/09/18 03:01:11;;;;;;;5.15;1.30;;;12.60;99.90;;;;;;5029487;28;20105;-50
2021/09/18 03:03:36;;;;;;;3.42;1.67;;;12.70;99.90;;;;;;5029256;28;20269;-51
2021/09/18 03:06:02;;;;;;;3.47;1.60;;;12.70;99.90;;;;;;5029118;28;20048;-49
2021/09/18 03:08:27;;;;;;;2.72;1.30;;;12.70;99.90;;;;;;5030508;28;20277;-51
2021/09/18 03:10:53;;;;;;;2.55;1.30;;;12.60;99.90;;;;;;5030483;28;20034;-51
2021/09/18 03:13:18;;;;;;;5.85;2.17;;;12.60;99.90;;;;;;5030474;28;20148;-51
2021/09/18 03:15:44;;;;;;;2.63;1.73;;;12.60;99.90;;;;;;5030386;28;20033;-51
2021/09/18 03:18:10;;;;;;;7.03;1.73;;;12.60;99.90;;;;;;5029093;28;20109;-50
2021/09/18 03:20:35;;;;;;;3.55;1.65;;;12.50;99.90;;;;;;5030185;28;20409;-49
2021/09/18 03:23:02;;;;;;;3.80;1.50;;;12.60;99.90;;;;;;5041127;28;20120;-51
2021/09/18 03:25:27;;;;;;;5.28;2.47;;;12.60;99.90;;;;;;5049218;28;20040;-51
2021/09/18 03:27:53;;;;;;;6.15;1.65;;;12.50;99.90;;;;;;5049315;28;20470;-49
2021/09/18 03:30:18;;;;;;;2.08;1.35;;;12.60;99.90;;;;;;5047121;28;20087;-51
2021/09/18 03:32:44;;;;;;;1.38;1.08;;;12.50;99.90;;;;;;5029113;28;20043;-51
2021/09/18 03:35:10;;;;;;;5.05;1.50;;;12.50;99.90;;;;;;5029481;28;20040;-50
2021/09/18 03:37:35;;;;;;;5.75;1.70;;;12.50;99.90;;;;;;5027560;28;20060;-51
2021/09/18 03:40:03;;;;;;;2.03;1.33;;;12.50;99.90;;;;;;5029424;28;20104;-51
2021/09/18 03:42:29;;;;;;;2.90;1.88;;;12.50;99.90;;;;;;5027882;28;20036;-50
2021/09/18 03:44:54;;;;;;;1.58;1.48;;;12.50;99.90;;;;;;5029126;28;20037;-51
2021/09/18 03:47:20;;;;;;;3.20;1.40;;;12.50;99.90;;;;;;5028912;28;20029;-51
2021/09/18 03:49:45;;;;;;;2.00;1.75;;;12.50;99.90;;;;;;5028051;28;20124;-48
2021/09/18 03:52:10;;;;;;;5.22;2.03;;;12.50;99.90;;;;;;5030950;28;20261;-51
2021/09/18 03:54:36;;;;;;;1.85;1.45;;;12.50;99.90;;;;;;5038706;28;20654;-49
2021/09/18 03:57:02;;;;;;;2.15;1.27;;;12.50;99.90;;;;;;5047777;28;20025;-48
2021/09/18 03:59:27;;;;;;;3.08;1.40;;;12.50;99.90;;;;;;5049353;28;20048;-49
2021/09/18 04:01:53;;;;;;;4.00;2.05;;;12.50;99.90;;;;;;5048173;28;20033;-50
2021/09/18 04:04:18;;;;;;;2.55;1.35;;;12.50;99.90;;;;;;5049026;28;20099;-50
2021/09/18 04:06:44;;;;;;;2.30;1.55;;;12.50;99.90;;;;;;5048866;28;20382;-49
2021/09/18 04:09:09;;;;;;;1.63;1.50;;;12.50;99.90;;;;;;5049587;28;20083;-48
2021/09/18 04:11:35;;;;;;;4.13;1.65;;;12.50;99.90;;;;;;5049314;28;20549;-50
2021/09/18 04:14:00;;;;;;;5.45;1.70;;;12.60;99.90;;;;;;5048832;28;20090;-48
2021/09/18 04:16:26;;;;;;;2.38;1.40;;;12.50;99.90;;;;;;5049104;28;20242;-48
2021/09/18 04:18:51;;;;;;;2.53;1.90;;;12.50;99.90;;;;;;5048800;28;20064;-49
2021/09/18 04:21:17;;;;;;;2.75;1.90;;;12.50;99.90;;;;;;5048686;28;20029;-50
2021/09/18 04:23:43;;;;;;;5.95;2.10;;;12.50;99.90;;;;;;5048588;28;20029;-48
2021/09/18 04:26:08;;;;;;;3.17;1.80;;;12.50;99.90;;;;;;5048960;28;20112;-49
2021/09/18 04:28:34;;;;;;;1.73;1.63;;;12.50;99.90;;;;;;5047326;28;20072;-49
2021/09/18 04:30:59;;;;;;;1.60;1.35;;;12.50;99.90;;;;;;5048865;28;20056;-50
2021/09/18 04:33:25;;;;;;;3.03;1.75;;;12.50;99.90;;;;;;5048686;28;20044;-51
2021/09/18 04:35:50;;;;;;;3.42;1.50;;;12.50;99.90;;;;;;5048793;28;20029;-48
2021/09/18 04:38:16;;;;;;;2.25;1.63;;;12.50;99.90;;;;;;5048090;28;20547;-51
2021/09/18 04:40:41;;;;;;;4.68;1.80;;;12.50;99.90;;;;;;5048408;28;20025;-50
2021/09/18 04:43:07;;;;;;;1.90;1.67;;;12.50;99.90;;;;;;5048865;28;20394;-49
2021/09/18 04:45:32;;;;;;;3.40;1.80;;;12.50;99.90;;;;;;5048267;28;20091;-51
2021/09/18 04:47:58;;;;;;;4.70;1.85;;;12.50;99.90;;;;;;5048631;28;20455;-48
2021/09/18 04:50:23;;;;;;;2.30;2.10;;;12.50;99.90;;;;;;5048604;28;20486;-50
2021/09/18 04:52:49;;;;;;;3.10;2.10;;;12.50;99.90;;;;;;5047228;28;20024;-51
2021/09/18 04:55:14;;;;;;;3.80;2.58;;;12.50;99.90;;;;;;5048622;28;20020;-50
2021/09/18 04:57:40;;;;;;;3.20;2.42;;;12.50;99.90;;;;;;5047739;28;20027;-50
2021/09/18 05:00:07;;;;;;;4.50;2.10;;;12.40;99.90;;;;;;5048336;28;20055;-49
2021/09/18 05:02:32;;;;;;;6.57;2.72;;;12.40;99.90;;;;;;5048457;28;20032;-50
2021/09/18 05:04:57;;;;;;;4.43;2.40;;;12.40;99.90;;;;;;5048426;28;20025;-50
2021/09/18 05:07:23;;;;;;;5.22;2.75;;;12.40;99.90;;;;;;5047901;28;20411;-51
2021/09/18 05:09:49;;;;;;;4.18;2.80;;;12.30;99.90;;;;;;5048085;28;20083;-52
2021/09/18 05:12:14;;;;;;;4.07;3.00;;;12.30;99.90;;;;;;5047392;28;20467;-47
2021/09/18 05:14:40;;;;;;;3.90;2.40;;;12.30;99.90;;;;;;5047628;28;20033;-49
2021/09/18 05:17:05;;;;;;;3.65;2.58;;;12.20;99.90;;;;;;5040459;28;20033;-49
2021/09/18 05:19:30;;;;;;;4.18;3.13;;;12.20;99.90;;;;;;5047064;28;20094;-49
2021/09/18 05:21:56;;;;;;;8.48;3.25;;;12.20;99.90;;;;;;5046505;28;20021;-48
2021/09/18 05:24:22;;;;;;;6.05;2.90;;;12.10;99.90;;;;;;5047828;28;20411;-48
2021/09/18 05:26:47;;;;;;;6.10;3.80;;;12.10;99.90;;;;;;5047259;28;20037;-49
2021/09/18 05:29:13;;;;;;;4.25;3.45;;;12.10;99.90;;;;;;5047888;28;20028;-49
2021/09/18 05:31:38;;;;;;;7.80;3.22;;;12.00;99.90;;;;;;5047611;28;20040;-50
2021/09/18 05:34:03;;;;;;;5.93;3.40;;;12.00;99.90;;;;;;5047558;28;20033;-49
2021/09/18 05:36:29;;;;;;;7.45;3.83;;;12.00;99.90;;;;;;5045647;28;20102;-48
2021/09/18 05:38:54;;;;;;;6.40;3.33;;;12.00;99.90;;;;;;5047990;28;20021;-47
2021/09/18 05:41:20;;;;;;;5.35;3.72;;;11.90;99.90;;;;;;5047328;28;20503;-51
2021/09/18 05:43:45;;;;;;;6.22;3.90;;;11.90;99.90;;;;;;5041064;28;20114;-48
2021/09/18 05:46:11;;;;;;;7.75;3.65;;;11.90;99.90;;;;;;5035682;28;20032;-49
2021/09/18 05:48:36;;;;;;;7.13;4.30;;;11.90;99.90;;;;;;5036558;28;20494;-50
2021/09/18 05:51:02;;;;;;;5.90;4.43;;;11.80;99.90;;;;;;5037063;28;20028;-49
2021/09/18 05:53:28;;;;;;;5.90;4.28;;;11.80;99.90;;;;;;5037048;28;20026;-48
2021/09/18 05:55:53;;;;;;;5.85;4.78;;;11.80;99.90;;;;;;5038223;28;20053;-49
2021/09/18 05:58:19;;;;;;;6.95;5.13;;;11.90;99.90;;;;;;5031948;28;20025;-50
2021/09/18 06:00:44;;;;;;;8.95;4.93;;;11.90;99.90;;;;;;5036104;28;20087;-49
2021/09/18 06:03:09;;;;;;;9.70;5.57;;;11.90;99.90;;;;;;5037160;28;20040;-50
2021/09/18 06:05:35;;;;;;;7.10;5.10;;;11.90;99.90;;;;;;5037276;28;20021;-49
2021/09/18 06:08:00;;;;;;;9.23;5.53;;;11.90;99.90;;;;;;5038001;28;20039;-50
2021/09/18 06:10:26;;;;;;;8.75;5.85;;;11.90;99.90;;;;;;5047211;28;20032;-51
2021/09/18 06:12:51;;;;;;;10.90;5.82;;;11.90;99.90;;;;;;5047054;28;20068;-53
2021/09/18 06:15:18;;;;;;;9.48;5.82;;;12.00;99.90;;;;;;5045518;28;20028;-53
2021/09/18 06:17:44;;;;;;;9.38;5.70;;;12.00;99.90;;;;;;5046818;28;20021;-52
2021/09/18 06:20:10;;;;;;;11.60;5.90;;;12.00;99.90;;;;;;5046062;28;20021;-52
2021/09/18 06:22:35;;;;;;;11.23;6.30;;;12.00;99.90;;;;;;5047627;28;20029;-54
2021/09/18 06:25:01;;;;;;;11.23;6.20;;;12.10;99.90;;;;;;5051669;28;20511;-52
2021/09/18 06:27:26;;;;;;;14.82;6.07;;;12.10;99.90;;;;;;5050714;28;20226;-52
2021/09/18 06:29:52;;;;;;;11.95;7.78;;;12.10;99.90;;;;;;5051473;28;20033;-52
2021/09/18 06:32:17;;;;;;;9.63;6.00;;;12.20;99.90;;;;;;5051085;28;20486;-53
2021/09/18 06:34:43;;;;;;;12.68;6.70;;;12.30;99.90;;;;;;5050544;28;20032;-52
2021/09/18 06:37:08;;;;;;;12.57;7.40;;;12.30;99.90;;;;;;5049943;28;20810;-51
2021/09/18 06:39:34;;;;;;;11.80;7.90;;;12.40;99.90;;;;;;5051064;28;20072;-52
2021/09/18 06:42:00;;;;;;;13.32;8.30;;;12.40;99.90;;;;;;5050850;28;20564;-51
2021/09/18 06:44:26;;;;;;;15.50;9.10;;;12.40;99.90;;;;;;5050850;28;20494;-52
2021/09/18 06:46:52;;;;;;;12.18;7.50;;;12.50;99.90;;;;;;5049752;28;20032;-54
2021/09/18 06:49:17;;;;;;;15.35;7.35;;;12.60;99.90;;;;;;5050259;28;20127;-52
2021/09/18 06:51:43;;;;;;;13.20;7.47;;;12.60;99.90;;;;;;5050276;28;20025;-52
2021/09/18 06:54:08;;;;;;;13.00;7.68;;;12.70;99.90;;;;;;5050579;28;20033;-52
2021/09/18 06:56:34;;;;;;;14.65;7.95;;;12.80;99.90;;;;;;5049958;28;20061;-53
2021/09/18 06:58:59;;;;;;;14.82;7.50;;;12.80;99.90;;;;;;5050168;28;20071;-53
2021/09/18 07:01:27;;;;;;;12.45;7.13;;;12.80;99.90;;;;;;5050257;28;20028;-53
2021/09/18 07:03:53;;;;;;;13.23;7.97;;;12.90;99.90;;;;;;5049234;28;20056;-53
2021/09/18 07:06:19;;;;;;;13.63;7.90;;;12.90;99.90;;;;;;5036031;28;20372;-53
2021/09/18 07:08:44;;;;;;;13.40;7.80;;;12.90;99.90;;;;;;5034019;28;20040;-53
2021/09/18 07:11:10;;;;;;;12.20;7.55;;;13.00;99.90;;;;;;5046516;28;20025;-53
2021/09/18 07:13:35;;;;;;;14.00;7.88;;;13.00;99.90;;;;;;5031950;28;20315;-53
2021/09/18 07:16:02;;;;;;;13.07;7.70;;;13.00;99.90;;;;;;5030468;28;20522;-54
2021/09/18 07:18:28;;;;;;;14.20;7.65;;;13.10;99.90;;;;;;5030000;28;20399;-53
2021/09/18 07:20:53;;;;;;;16.30;8.93;;;13.10;99.90;;;;;;5028616;28;20036;-52
2021/09/18 07:23:19;;;;;;;18.80;9.02;;;13.10;99.90;;;;;;5029920;28;20029;-54
2021/09/18 07:25:45;;;;;;;16.95;8.77;;;13.10;99.90;;;;;;5030207;28;20503;-52
2021/09/18 07:28:10;;;;;;;18.80;9.70;;;13.20;99.90;;;;;;5028065;28;20120;-53
2021/09/18 07:30:36;;;;;;;16.95;9.20;;;13.30;99.90;;;;;;5030077;28;20304;-52
2021/09/18 07:33:02;;;;;;;15.18;8.68;;;13.30;99.90;;;;;;5029936;28;20036;-52
2021/09/18 07:35:27;;;;;;;20.35;9.82;;;13.30;99.90;;;;;;5029766;28;20044;-52
2021/09/18 07:37:53;;;;;;;16.55;9.45;;;13.30;99.90;;;;;;5029214;28;20386;-50
2021/09/18 07:40:18;;;;;;;17.92;8.93;;;13.30;99.90;;;;;;5029826;28;20420;-51
2021/09/18 07:42:44;;;;;;;15.43;8.82;;;13.40;99.90;;;;;;5029996;28;20492;-51
2021/09/18 07:45:10;;;;;;;19.75;9.48;;;13.40;99.90;;;;;;5030087;28;20104;-51
2021/09/18 07:47:36;;;;;;;18.33;9.55;;;13.50;99.90;;;;;;5029524;28;20804;-51
2021/09/18 07:50:01;;;;;;;18.67;10.38;;;13.60;99.90;;;;;;5031359;28;20021;-50
2021/09/18 07:52:27;;;;;;;16.08;9.18;;;13.60;99.90;;;;;;5030993;28;20036;-51
2021/09/18 07:54:52;;;;;;;19.65;10.73;;;13.60;99.90;;;;;;5029905;28;20024;-51
2021/09/18 07:57:18;;;;;;;23.63;10.18;;;13.70;99.90;;;;;;5030744;28;20025;-51
2021/09/18 07:59:43;;;;;;;21.55;10.82;;;13.70;99.90;;;;;;5041084;28;20029;-50
2021/09/18 08:02:09;;;;;;;18.50;9.52;;;13.80;99.90;;;;;;5049423;28;20028;-51
2021/09/18 08:04:35;;;;;;;21.13;10.05;;;13.90;99.90;;;;;;5044461;28;20390;-51
2021/09/18 08:07:00;;;;;;;19.00;10.63;;;13.90;99.90;;;;;;5047911;28;20029;-51
2021/09/18 08:09:26;;;;;;;21.98;10.18;;;14.00;99.90;;;;;;5039082;28;20065;-51
2021/09/18 08:11:52;;;;;;;18.40;10.23;;;14.10;99.90;;;;;;5027990;28;20083;-49
2021/09/18 08:14:18;;;;;;;16.95;9.50;;;14.10;99.90;;;;;;5028864;28;20121;-51
2021/09/18 08:16:43;;;;;;;16.17;9.55;;;14.20;99.90;;;;;;5028424;28;20026;-51
2021/09/18 08:19:09;;;;;;;22.05;10.27;;;14.30;99.90;;;;;;5037887;28;20386;-51
2021/09/18 08:21:34;;;;;;;17.05;10.02;;;14.30;99.90;;;;;;5048681;28;20033;-51
2021/09/18 08:24:00;;;;;;;17.33;10.63;;;14.40;99.90;;;;;;5047235;28;20482;-51
2021/09/18 08:26:30;;;;;;;14.80;9.23;;;14.50;99.90;;;;;;5048669;28;20061;-51
2021/09/18 08:28:57;;;;;;;15.40;9.17;;;14.60;99.90;;;;;;5048715;28;20021;-51
2021/09/18 08:31:24;;;;;;;17.30;9.93;;;14.70;99.90;;;;;;5048474;28;20037;-51
2021/09/18 08:33:49;;;;;;;16.85;10.15;;;14.80;99.90;;;;;;5047876;28;20111;-51
2021/09/18 08:36:15;;;;;;;16.17;9.52;;;14.80;99.90;;;;;;5048576;28;20116;-51
2021/09/18 08:38:40;;;;;;;15.55;9.93;;;14.90;99.90;;;;;;5048353;28;20029;-51
2021/09/18 08:41:07;;;;;;;14.05;8.73;;;14.90;99.90;;;;;;5046967;28;20029;-51
2021/09/18 08:43:33;;;;;;;15.43;9.43;;;14.90;99.90;;;;;;5048367;28;20025;-50
2021/09/18 08:46:00;;;;;;;16.65;9.57;;;15.00;99.90;;;;;;5047087;28;20040;-49
2021/09/18 08:48:26;;;;;;;17.17;10.27;;;15.10;99.90;;;;;;5047745;28;20024;-51
2021/09/18 08:50:52;;;;;;;14.00;9.38;;;15.10;99.90;;;;;;5047985;28;20487;-49
2021/09/18 08:53:20;;;;;;;14.77;9.63;;;15.10;99.90;;;;;;5048078;28;20060;-50
2021/09/18 08:55:58;;;;;;;11.70;8.95;;;15.20;99.90;;;;;;5047602;28;20025;-51
2021/09/18 08:58:24;;;;;;;12.45;8.93;;;15.20;99.90;;;;;;5047917;28;20078;-51
2021/09/18 09:00:55;;;;;;;15.45;9.50;;;15.30;99.90;;;;;;5047855;28;20053;-51
2021/09/18 09:03:35;;;;;;;;;;;15.50;99.90;;;;;;5048809;28;20367;-51
2021/09/18 09:06:06;;;;;;;16.40;9.13;;;15.50;99.90;;;;;;5048048;28;19912;-51
2021/09/18 09:08:32;;;;;;;12.90;8.35;;;15.60;99.90;;;;;;5045943;28;20024;-51
2021/09/18 09:10:58;;;;;;;13.13;9.18;;;15.80;99.90;;;;;;5035368;28;20045;-51
2021/09/18 09:13:25;;;;;;;12.23;8.38;;;16.00;99.90;;;;;;5029105;28;20194;-51
2021/09/18 09:16:05;;;;;;;14.57;9.05;;;16.20;99.90;;;;;;5027334;28;20128;-51
2021/09/18 09:18:40;;;;;;;10.88;7.70;;;16.40;99.90;;;;;;5027449;28;20026;-50
2021/09/18 09:21:13;;;;;;;10.15;6.95;;;16.60;99.90;;;;;;5027386;28;20545;-51
2021/09/18 09:23:41;;;;;;;9.85;7.25;;;16.60;99.90;;;;;;5027442;28;20029;-49
2021/09/18 09:26:07;;;;;;;8.88;6.78;;;16.70;99.90;;;;;;5027452;28;20094;-51
2021/09/18 09:28:35;;;;;;;9.90;7.63;;;16.70;99.90;;;;;;5027308;28;20076;-50
2021/09/18 09:31:15;;;;;;;7.72;6.20;;;16.80;99.90;;;;;;5027988;28;20157;-49
2021/09/18 09:34:04;;;;;;;6.85;5.60;;;17.30;99.90;;;;;;5027297;28;20280;-51
2021/09/18 09:36:35;;;;;;;7.40;5.07;;;18.50;99.90;;;;;;5026963;28;20025;-51
2021/09/18 09:39:04;;;;;;;5.90;4.30;;;19.20;99.90;;;;;;5027756;28;20013;-51
2021/09/18 09:41:35;;;;;;;4.10;3.33;;;19.30;99.90;;;;;;5027424;28;20068;-51
2021/09/18 09:44:04;;;;;;;6.30;3.97;;;19.50;99.90;;;;;;5027372;28;20033;-51
2021/09/18 09:46:30;;;;;;;5.20;3.70;;;19.90;99.90;;;;;;5026967;28;20021;-52
2021/09/18 09:49:07;;;;;;;6.20;3.47;;;19.40;99.90;;;;;;5027129;28;20108;-51
2021/09/18 09:51:32;;;;;;;6.47;3.85;;;19.20;99.90;;;;;;5027343;28;20091;-51
2021/09/18 09:54:16;;;;;;;5.75;3.33;;;18.80;99.90;;;;;;5027172;28;20253;-51
2021/09/18 09:56:42;;;;;;;3.75;3.20;;;18.50;99.90;;;;;;5046215;28;20108;-51
2021/09/18 09:59:07;;;;;;;4.90;3.63;;;18.30;99.90;;;;;;5046319;28;20116;-49
2021/09/18 10:01:33;;;;;;;4.47;3.03;;;18.10;99.90;;;;;;5047185;28;20029;-51
2021/09/18 10:03:58;;;;;;;4.72;3.40;;;18.00;99.90;;;;;;5047307;28;20032;-51
2021/09/18 10:06:25;;;;;;;4.53;3.25;;;17.80;99.90;;;;;;5046739;28;20039;-50
2021/09/18 10:08:51;;;;;;;4.80;3.10;;;17.70;99.90;;;;;;5047035;28;20036;-51
2021/09/18 10:11:17;;;;;;;3.03;2.22;;;17.60;99.90;;;;;;5042604;28;20779;-51
2021/09/18 10:13:46;;;;;;;4.82;3.35;;;17.40;99.90;;;;;;5025278;28;20359;-51
2021/09/18 10:16:12;;;;;;;5.45;3.05;;;17.40;99.90;;;;;;5027017;28;20534;-52
2021/09/18 10:18:38;;;;;;;3.58;3.22;;;17.20;99.90;;;;;;5026610;28;20034;-51
2021/09/18 10:23:48;;;;;;;5.13;2.88;;;16.90;99.90;;;;;;5027142;28;20450;-51
2021/09/18 10:26:14;;;;;;;3.70;2.95;;;16.90;99.90;;;;;;5026417;28;20049;-50
2021/09/18 10:28:45;;;;;;;3.20;2.90;;;17.00;99.90;;;;;;5026521;28;20025;-51
2021/09/18 10:31:21;;;;;;;3.67;3.28;;;17.00;99.90;;;;;;5025679;28;20034;-50
2021/09/18 10:33:52;;;;;;;7.47;3.80;;;17.00;99.90;;;;;;5025183;28;20037;-51
2021/09/18 10:36:40;;;;;;;10.20;3.67;;;17.20;99.90;;;;;;5026801;28;20028;-51
2021/09/18 10:39:19;;;;;;;4.88;3.38;;;17.20;99.90;;;;;;5026491;28;20262;-51
2021/09/18 10:41:57;;;;;;;4.38;3.10;;;17.30;99.90;;;;;;5027217;28;20088;-50
2021/09/18 10:44:44;;;;;;;2.88;2.40;;;17.50;99.90;;;;;;5027305;28;20034;-51
2021/09/18 10:47:09;;;;;;;3.67;2.78;;;17.70;99.90;;;;;;5026238;28;20041;-51
2021/09/18 10:49:40;;;;;;;4.80;2.80;;;17.90;99.90;;;;;;5025862;28;20080;-51
2021/09/18 10:52:17;;;;;;;5.63;3.25;;;18.10;99.90;;;;;;5026925;28;20465;-51
2021/09/18 10:55:10;;;;;;;3.15;2.85;;;18.30;99.90;;;;;;5026887;28;20047;-51
2021/09/18 10:57:38;;;;;;;3.75;2.63;;;18.40;99.90;;;;;;5025986;28;20017;-51
2021/09/18 11:00:24;;;;;;;2.92;2.28;;;18.60;99.90;;;;;;5027120;28;20030;-50
2021/09/18 11:02:51;;;;;;;3.53;2.40;;;18.60;99.90;;;;;;5026038;28;20042;-51
2021/09/18 11:05:26;;;;;;;2.50;1.90;;;18.60;99.90;;;;;;5026755;28;20618;-51
2021/09/18 11:07:51;;;;;;;2.58;1.90;;;18.70;99.90;;;;;;5026456;28;20045;-51
2021/09/18 11:10:20;;;;;;;2.97;2.00;;;18.60;99.90;;;;;;5030061;28;20483;-51
2021/09/18 11:13:07;;;;;;;4.03;1.98;;;18.70;99.90;;;;;;5030520;28;20028;-52
2021/09/18 11:15:54;;;;;;;4.88;2.05;;;18.70;99.90;;;;;;5029687;28;20052;-50
2021/09/18 11:18:37;;;;;;;3.38;2.45;;;18.70;99.90;;;;;;5029837;28;20033;-52
2021/09/18 11:21:16;;;;;;;3.53;2.30;;;18.60;99.90;;;;;;5029020;28;20605;-51
2021/09/18 11:23:48;;;;;;;2.38;2.17;;;18.50;99.90;;;;;;5030108;28;20068;-51
2021/09/18 11:26:39;;;;;;;3.67;2.42;;;18.50;99.90;;;;;;5030584;28;20044;-51
2021/09/18 11:29:10;;;;;;;4.43;3.50;;;18.40;99.90;;;;;;5030355;28;20022;-51
2021/09/18 11:32:04;;;;;;;6.53;3.25;;;18.30;99.90;;;;;;5030302;28;20026;-51
2021/09/18 11:34:32;;;;;;;3.88;2.55;;;18.30;99.90;;;;;;5030604;28;20098;-51
2021/09/18 11:37:00;;;;;;;3.97;2.67;;;18.20;99.90;;;;;;5028825;28;20112;-51
2021/09/18 11:39:49;;;;;;;2.67;2.38;;;18.10;99.90;;;;;;5029899;28;20053;-51
2021/09/18 11:42:31;;;;;;;4.93;2.33;;;18.00;99.90;;;;;;5029870;28;20032;-51
2021/09/18 11:45:00;;;;;;;6.93;2.60;;;17.90;99.90;;;;;;5029672;28;20048;-51
2021/09/18 11:47:30;;;;;;;4.97;2.47;;;17.80;99.90;;;;;;5029368;28;20021;-49
2021/09/18 11:49:56;;;;;;;7.28;4.72;;;17.80;99.90;;;;;;5030095;28;20374;-52
2021/09/18 11:52:40;;;;;;;8.43;6.47;;;17.70;99.90;;;;;;5029775;28;20068;-52
2021/09/18 11:55:07;;;;;;;2.67;2.47;;;17.70;99.90;;;;;;5030045;28;20028;-52
2021/09/18 11:57:32;;;;;;;2.55;2.10;;;17.70;99.90;;;;;;5029302;28;20021;-51
2021/09/18 12:00:13;;;;;;;3.35;2.08;;;17.60;99.90;;;;;;5029575;28;20063;-49
2021/09/18 12:02:38;;;;;;;3.22;2.28;;;17.50;99.90;;;;;;5028052;28;20056;-51
2021/09/18 12:05:04;;;;;;;2.15;1.80;;;17.50;99.90;;;;;;5029472;28;20037;-51
2021/09/18 12:07:29;;;;;;;2.08;1.63;;;17.40;99.90;;;;;;5028956;28;20025;-51
2021/09/18 12:09:56;;;;;;;2.30;1.88;;;17.30;99.90;;;;;;5029385;28;20237;-51
2021/09/18 12:12:30;;;;;;;2.55;1.52;;;17.30;99.90;;;;;;5029876;28;20071;-52
2021/09/18 12:14:55;;;;;;;1.38;1.27;;;17.30;99.90;;;;;;5030481;28;20254;-51
2021/09/18 12:17:21;;;;;;;1.05;1.02;;;17.20;99.90;;;;;;5030060;28;20018;-52
2021/09/18 12:19:47;;;;;;;1.20;1.10;;;17.10;99.90;;;;;;5029516;28;20021;-52
2021/09/18 12:22:14;;;;;;;0.98;0.98;;;17.10;99.90;;;;;;5030779;28;20171;-52
2021/09/18 12:24:41;;;;;;;1.58;1.23;;;17.10;99.90;;;;;;5031613;28;20029;-52
2021/09/18 12:27:27;;;;;;;1.25;1.10;;;17.20;99.90;;;;;;5030756;28;20404;-52
2021/09/18 12:29:58;;;;;;;1.45;1.35;;;17.40;99.90;;;;;;5030334;28;20069;-51
2021/09/18 12:32:23;;;;;;;;;;;17.60;99.90;;;;;;5032133;28;20523;-51
2021/09/18 12:34:50;;;;;;;2.63;1.10;;;17.70;99.90;;;;;;5031508;28;20063;-51
2021/09/18 12:37:17;;;;;;;1.83;1.20;;;17.90;99.90;;;;;;5030987;28;20022;-49
2021/09/18 12:39:43;;;;;;;1.17;0.85;;;18.30;99.90;;;;;;5031553;28;20115;-51
2021/09/18 12:42:10;;;;;;;1.38;1.00;;;18.50;99.90;;;;;;5031576;28;20018;-50
2021/09/18 12:44:38;;;;;;;0.77;0.77;;;18.80;99.90;;;;;;5031611;28;20397;-51
2021/09/18 12:47:04;;;;;;;2.45;0.70;;;18.90;99.90;;;;;;5030811;28;20828;-49
2021/09/18 12:49:34;;;;;;;1.90;0.70;;;18.80;99.90;;;;;;5031379;28;20045;-49